Time;durP1;ratioP1;P1;durP2;ratioP2;P2;SDS_P1;SDS_P2;PMS_P1;PMS_P2;Temp;Humidity;BMP_temperature;BMP_pressure;BME280_temperature;BME280_humidity;BME280_pressure;Samples;Min_cycle;Max_cycle;Signal;HPM_P1;HPM_P2
2023/08/02 00:00:51;;;;;;;8.82;3.00;;;;;;;;;;5047200;28;20044;-73
2023/08/02 00:03:18;;;;;;;13.38;3.92;;;;;;;;;;5065579;28;20475;-73
2023/08/02 00:05:52;;;;;;;11.57;3.25;;;;;;;;;;5053515;28;20049;-72
2023/08/02 00:08:18;;;;;;;14.27;3.78;;;;;;;;;;5052706;28;20029;-73
2023/08/02 00:10:44;;;;;;;9.45;3.30;;;;;;;;;;5052437;28;20106;-73
2023/08/02 00:13:10;;;;;;;14.80;3.85;;;;;;;;;;5052187;28;20025;-73
2023/08/02 00:15:38;;;;;;;10.73;3.30;;;;;;;;;;5052431;28;20459;-73
2023/08/02 00:18:04;;;;;;;10.82;3.10;;;;;;;;;;5052428;28;20024;-73
2023/08/02 00:20:30;;;;;;;16.20;3.55;;;;;;;;;;5052364;28;20079;-72
2023/08/02 00:22:56;;;;;;;13.13;3.92;;;;;;;;;;5052003;28;20021;-72
2023/08/02 00:25:22;;;;;;;12.35;3.40;;;;;;;;;;5052389;28;20379;-73
2023/08/02 00:27:48;;;;;;;8.68;2.90;;;;;;;;;;5052202;28;20040;-73
2023/08/02 00:30:14;;;;;;;12.98;3.30;;;;;;;;;;5052243;28;20029;-73
2023/08/02 00:32:47;;;;;;;13.50;3.60;;;;;;;;;;5051805;28;20052;-73
2023/08/02 00:35:13;;;;;;;14.45;3.30;;;;;;;;;;5050898;28;20391;-73
2023/08/02 00:37:40;;;;;;;11.68;3.10;;;;;;;;;;5052004;28;20021;-73
2023/08/02 00:40:06;;;;;;;14.98;3.17;;;;;;;;;;5052152;28;20499;-73
2023/08/02 00:42:32;;;;;;;9.70;3.13;;;;;;;;;;5051657;28;20036;-73
2023/08/02 00:44:58;;;;;;;14.55;3.60;;;;;;;;;;5051985;28;20399;-73
2023/08/02 00:47:25;;;;;;;12.38;3.30;;;;;;;;;;5051909;28;20091;-72
2023/08/02 00:49:51;;;;;;;10.52;3.03;;;;;;;;;;5051907;28;20025;-72
2023/08/02 00:52:17;;;;;;;12.23;3.38;;;;;;;;;;5051158;28;20112;-72
2023/08/02 00:54:43;;;;;;;9.45;3.17;;;;;;;;;;5051803;28;20025;-72
2023/08/02 00:57:12;;;;;;;6.97;3.00;;;;;;;;;;5051750;28;20021;-73
2023/08/02 00:59:38;;;;;;;11.73;3.38;;;;;;;;;;5051696;28;20539;-73
2023/08/02 01:02:06;;;;;;;7.10;2.92;;;;;;;;;;5051473;28;20063;-73
2023/08/02 01:04:32;;;;;;;12.57;3.10;;;;;;;;;;5051109;28;20600;-73
2023/08/02 01:07:05;;;;;;;7.88;3.00;;;;;;;;;;5052273;28;20068;-72
2023/08/02 01:09:36;;;;;;;7.20;3.25;;;;;;;;;;5053589;28;20025;-72
2023/08/02 01:12:03;;;;;;;8.73;3.40;;;;;;;;;;5051554;28;20056;-72
2023/08/02 01:14:30;;;;;;;5.93;3.25;;;;;;;;;;5051604;28;20055;-72
2023/08/02 01:16:56;;;;;;;10.00;3.83;;;;;;;;;;5051628;28;20025;-73
2023/08/02 01:19:23;;;;;;;15.50;4.10;;;;;;;;;;5051655;28;20025;-72
2023/08/02 01:21:49;;;;;;;12.40;3.70;;;;;;;;;;5051287;28;20043;-72
2023/08/02 01:24:15;;;;;;;10.30;3.83;;;;;;;;;;5051454;28;20029;-72
2023/08/02 01:26:44;;;;;;;13.25;3.78;;;;;;;;;;5051546;28;20490;-72
2023/08/02 01:29:14;;;;;;;17.65;4.43;;;;;;;;;;5051552;28;20051;-72
2023/08/02 01:31:42;;;;;;;9.90;3.80;;;;;;;;;;5051400;28;20112;-73
2023/08/02 01:34:08;;;;;;;19.58;4.55;;;;;;;;;;5051215;28;20091;-72
2023/08/02 01:36:34;;;;;;;11.80;4.00;;;;;;;;;;5051432;28;20025;-73
2023/08/02 01:39:00;;;;;;;11.23;3.00;;;;;;;;;;5051476;28;20040;-72
2023/08/02 01:41:26;;;;;;;10.27;3.55;;;;;;;;;;5051447;28;20025;-73
2023/08/02 01:43:52;;;;;;;15.00;3.53;;;;;;;;;;5051261;28;20092;-73
2023/08/02 01:46:18;;;;;;;16.88;7.07;;;;;;;;;;5051256;28;20552;-73
2023/08/02 01:48:44;;;;;;;16.08;3.85;;;;;;;;;;5051249;28;20025;-73
2023/08/02 01:51:10;;;;;;;11.82;3.70;;;;;;;;;;5051354;28;20025;-72
2023/08/02 01:53:36;;;;;;;8.23;3.38;;;;;;;;;;5049535;28;20120;-73
2023/08/02 01:56:02;;;;;;;12.80;3.90;;;;;;;;;;5051311;28;20021;-72
2023/08/02 01:58:30;;;;;;;12.80;3.75;;;;;;;;;;5052097;28;20021;-71
2023/08/02 02:00:56;;;;;;;15.00;3.13;;;;;;;;;;5052694;28;20021;-72
2023/08/02 02:03:22;;;;;;;9.82;3.20;;;;;;;;;;5052040;28;20050;-72
2023/08/02 02:05:55;;;;;;;7.78;3.05;;;;;;;;;;5053494;28;20100;-72
2023/08/02 02:08:21;;;;;;;14.65;3.28;;;;;;;;;;5056201;28;20025;-72
2023/08/02 02:10:50;;;;;;;9.85;3.15;;;;;;;;;;5056924;28;20025;-72
2023/08/02 02:13:17;;;;;;;8.63;3.28;;;;;;;;;;5054476;28;20060;-72
2023/08/02 02:15:43;;;;;;;10.18;3.00;;;;;;;;;;5056057;28;20071;-72
2023/08/02 02:18:09;;;;;;;5.38;2.80;;;;;;;;;;5055450;28;20029;-73
2023/08/02 02:20:35;;;;;;;14.85;3.20;;;;;;;;;;5053525;28;20092;-74
2023/08/02 02:23:01;;;;;;;9.23;2.97;;;;;;;;;;5053749;28;20496;-73
2023/08/02 02:25:27;;;;;;;6.72;2.65;;;;;;;;;;5054522;28;20027;-73
2023/08/02 02:27:53;;;;;;;10.05;2.92;;;;;;;;;;5054187;28;20490;-73
2023/08/02 02:30:19;;;;;;;10.30;2.65;;;;;;;;;;5054032;28;20033;-73
2023/08/02 02:32:45;;;;;;;9.13;2.60;;;;;;;;;;5053134;28;20477;-73
2023/08/02 02:35:14;;;;;;;12.07;3.42;;;;;;;;;;5054188;28;20104;-72
2023/08/02 02:37:41;;;;;;;7.03;2.35;;;;;;;;;;5054285;28;20143;-73
2023/08/02 02:40:07;;;;;;;10.18;3.00;;;;;;;;;;5054086;28;20096;-73
2023/08/02 02:42:33;;;;;;;7.03;2.55;;;;;;;;;;5053495;28;20044;-73
2023/08/02 02:44:59;;;;;;;10.30;2.85;;;;;;;;;;5054820;28;20028;-73
2023/08/02 02:47:25;;;;;;;7.65;2.70;;;;;;;;;;5055207;28;20064;-73
2023/08/02 02:49:51;;;;;;;11.38;2.92;;;;;;;;;;5054686;28;20111;-73
2023/08/02 02:52:17;;;;;;;7.40;2.58;;;;;;;;;;5053892;28;20048;-72
2023/08/02 02:54:43;;;;;;;6.60;2.05;;;;;;;;;;5054598;28;20463;-72
2023/08/02 02:57:09;;;;;;;4.35;1.75;;;;;;;;;;5053168;28;20025;-73
2023/08/02 02:59:36;;;;;;;5.38;2.00;;;;;;;;;;5054152;28;20017;-73
2023/08/02 03:02:02;;;;;;;5.00;1.90;;;;;;;;;;5053672;28;20031;-73
2023/08/02 03:04:28;;;;;;;4.80;2.10;;;;;;;;;;5053933;28;20044;-72
2023/08/02 03:06:54;;;;;;;5.50;2.10;;;;;;;;;;5054225;28;20386;-73
2023/08/02 03:09:20;;;;;;;5.65;2.65;;;;;;;;;;5053283;28;20033;-72
2023/08/02 03:11:46;;;;;;;8.70;2.45;;;;;;;;;;5053000;28;20021;-73
2023/08/02 03:14:12;;;;;;;10.40;2.40;;;;;;;;;;5053636;28;20079;-73
2023/08/02 03:16:42;;;;;;;6.38;2.40;;;;;;;;;;5053451;28;20033;-73
2023/08/02 03:19:09;;;;;;;5.28;2.35;;;;;;;;;;5053289;28;20501;-72
2023/08/02 03:21:35;;;;;;;6.45;2.42;;;;;;;;;;5053339;28;20495;-71
2023/08/02 03:24:01;;;;;;;4.53;1.92;;;;;;;;;;5051350;28;20051;-74
2023/08/02 03:26:26;;;;;;;7.95;2.67;;;;;;;;;;5053040;28;20154;-71
2023/08/02 03:28:52;;;;;;;4.20;1.50;;;;;;;;;;5053235;28;20067;-72
2023/08/02 03:31:18;;;;;;;4.45;1.65;;;;;;;;;;5053374;28;20021;-71
2023/08/02 03:33:44;;;;;;;6.15;2.33;;;;;;;;;;5052819;28;20513;-71
2023/08/02 03:36:10;;;;;;;7.45;2.10;;;;;;;;;;5048432;28;20029;-72
2023/08/02 03:38:36;;;;;;;5.55;1.98;;;;;;;;;;5060934;28;20482;-73
2023/08/02 03:41:02;;;;;;;7.15;2.38;;;;;;;;;;5053535;28;20033;-72
2023/08/02 03:43:28;;;;;;;4.38;1.77;;;;;;;;;;5061015;28;20448;-73
2023/08/02 03:45:54;;;;;;;9.25;2.22;;;;;;;;;;5058028;28;20029;-73
2023/08/02 03:48:20;;;;;;;4.40;2.15;;;;;;;;;;5062031;28;20097;-71
2023/08/02 03:50:46;;;;;;;6.95;2.70;;;;;;;;;;5054602;28;20032;-72
2023/08/02 03:53:12;;;;;;;4.82;1.92;;;;;;;;;;5054103;28;20087;-71
2023/08/02 03:55:38;;;;;;;5.22;2.20;;;;;;;;;;5061168;28;20444;-71
2023/08/02 03:58:04;;;;;;;4.60;1.95;;;;;;;;;;5054314;28;20029;-72
2023/08/02 04:00:30;;;;;;;4.65;2.00;;;;;;;;;;5067513;28;20082;-74
2023/08/02 04:02:56;;;;;;;5.88;1.80;;;;;;;;;;5047836;28;20029;-71
2023/08/02 04:05:22;;;;;;;4.05;1.80;;;;;;;;;;5062811;28;20115;-72
2023/08/02 04:07:48;;;;;;;6.15;1.70;;;;;;;;;;5051165;28;20032;-74
2023/08/02 04:10:14;;;;;;;3.90;1.42;;;;;;;;;;5058938;28;20048;-74
2023/08/02 04:12:40;;;;;;;6.40;1.70;;;;;;;;;;5060981;28;20033;-73
2023/08/02 04:15:06;;;;;;;2.85;1.55;;;;;;;;;;5063521;28;20020;-73
2023/08/02 04:17:32;;;;;;;6.80;1.60;;;;;;;;;;5066595;28;20020;-73
2023/08/02 04:19:59;;;;;;;5.63;1.60;;;;;;;;;;5054430;28;20028;-72
2023/08/02 04:22:25;;;;;;;2.55;1.52;;;;;;;;;;5068037;28;20051;-70
2023/08/02 04:24:51;;;;;;;3.30;1.70;;;;;;;;;;5072209;28;20470;-71
2023/08/02 04:27:17;;;;;;;4.38;1.92;;;;;;;;;;5071431;28;20036;-72
2023/08/02 04:29:42;;;;;;;3.22;1.52;;;;;;;;;;5072113;28;20078;-71
2023/08/02 04:32:08;;;;;;;9.35;2.60;;;;;;;;;;5071511;28;20035;-72
2023/08/02 04:34:34;;;;;;;5.93;2.30;;;;;;;;;;5072193;28;20410;-72
2023/08/02 04:37:00;;;;;;;3.58;1.90;;;;;;;;;;5071981;28;20028;-72
2023/08/02 04:39:26;;;;;;;5.95;2.10;;;;;;;;;;5072108;28;20607;-72
2023/08/02 04:41:56;;;;;;;3.25;2.15;;;;;;;;;;5071737;28;20024;-72
2023/08/02 04:44:21;;;;;;;4.13;2.33;;;;;;;;;;5071836;28;20028;-72
2023/08/02 04:46:47;;;;;;;5.55;2.75;;;;;;;;;;5071994;28;20025;-71
2023/08/02 04:49:13;;;;;;;6.80;3.30;;;;;;;;;;5071870;28;20031;-72
2023/08/02 04:51:39;;;;;;;10.93;3.17;;;;;;;;;;5071608;28;20434;-72
2023/08/02 04:54:05;;;;;;;6.65;3.17;;;;;;;;;;5071516;28;20028;-71
2023/08/02 04:56:31;;;;;;;12.32;3.80;;;;;;;;;;5071775;28;20025;-71
2023/08/02 04:58:57;;;;;;;7.63;3.70;;;;;;;;;;5072045;28;20504;-72
2023/08/02 05:01:23;;;;;;;10.10;4.60;;;;;;;;;;5071976;28;20033;-72
2023/08/02 05:03:49;;;;;;;9.23;4.30;;;;;;;;;;5071323;28;20489;-72
2023/08/02 05:06:15;;;;;;;11.25;4.30;;;;;;;;;;5071790;28;20482;-73
2023/08/02 05:08:41;;;;;;;14.30;4.68;;;;;;;;;;5071610;28;20095;-72
2023/08/02 05:11:08;;;;;;;11.63;4.60;;;;;;;;;;5071700;28;20091;-72
2023/08/02 05:13:34;;;;;;;15.25;4.18;;;;;;;;;;5071415;28;20543;-73
2023/08/02 05:16:01;;;;;;;9.88;4.88;;;;;;;;;;5071747;28;20067;-72
2023/08/02 05:18:27;;;;;;;12.38;4.35;;;;;;;;;;5071662;28;20515;-71
2023/08/02 05:20:53;;;;;;;13.63;4.85;;;;;;;;;;5071754;28;20056;-71
2023/08/02 05:23:19;;;;;;;10.68;4.22;;;;;;;;;;5071254;28;20025;-71
2023/08/02 05:25:45;;;;;;;24.92;5.32;;;;;;;;;;5071606;28;20458;-74
2023/08/02 05:28:11;;;;;;;14.05;4.35;;;;;;;;;;5056948;28;20029;-75
2023/08/02 05:30:38;;;;;;;10.85;4.45;;;;;;;;;;5061742;28;20033;-73
2023/08/02 05:33:06;;;;;;;9.85;3.90;;;;;;;;;;5060174;28;20443;-74
2023/08/02 05:35:32;;;;;;;11.18;4.20;;;;;;;;;;5060122;28;20132;-72
2023/08/02 05:37:58;;;;;;;11.52;3.88;;;;;;;;;;5058947;28;20033;-74
2023/08/02 05:40:24;;;;;;;12.02;4.43;;;;;;;;;;5066009;28;20028;-74
2023/08/02 05:42:50;;;;;;;13.48;3.97;;;;;;;;;;5057653;28;20096;-73
2023/08/02 05:45:16;;;;;;;11.50;3.92;;;;;;;;;;5060612;28;20577;-74
2023/08/02 05:47:42;;;;;;;17.65;4.50;;;;;;;;;;5065093;28;20021;-74
2023/08/02 05:50:09;;;;;;;10.70;3.85;;;;;;;;;;5067795;28;20096;-74
2023/08/02 05:52:35;;;;;;;12.80;3.65;;;;;;;;;;5056634;28;20031;-74
2023/08/02 05:55:00;;;;;;;17.27;3.85;;;;;;;;;;5061034;28;20108;-73
2023/08/02 05:57:26;;;;;;;10.20;3.80;;;;;;;;;;5068605;28;20047;-74
2023/08/02 05:59:52;;;;;;;13.85;3.08;;;;;;;;;;5066760;28;20025;-73
2023/08/02 06:02:18;;;;;;;11.57;3.63;;;;;;;;;;5065366;28;20035;-72
2023/08/02 06:04:45;;;;;;;14.95;4.15;;;;;;;;;;5059424;28;20025;-74
2023/08/02 06:07:12;;;;;;;12.10;3.75;;;;;;;;;;5069296;28;20071;-74
2023/08/02 06:09:38;;;;;;;9.98;4.85;;;;;;;;;;5061693;28;20080;-74
2023/08/02 06:12:04;;;;;;;13.05;3.72;;;;;;;;;;5068732;28;20036;-74
2023/08/02 06:14:30;;;;;;;11.70;3.70;;;;;;;;;;5054833;28;20444;-74
2023/08/02 06:16:56;;;;;;;13.95;4.20;;;;;;;;;;5055025;28;20032;-74
2023/08/02 06:19:22;;;;;;;12.57;4.00;;;;;;;;;;5054822;28;20025;-73
2023/08/02 06:21:48;;;;;;;15.13;4.90;;;;;;;;;;5054459;28;20040;-72
2023/08/02 06:24:14;;;;;;;15.20;5.03;;;;;;;;;;5055863;28;20028;-72
2023/08/02 06:26:40;;;;;;;14.60;3.72;;;;;;;;;;5055895;28;20025;-75
2023/08/02 06:29:08;;;;;;;14.82;3.90;;;;;;;;;;5056757;28;20095;-74
2023/08/02 06:31:34;;;;;;;14.43;4.47;;;;;;;;;;5054344;28;20021;-73
2023/08/02 06:34:00;;;;;;;13.35;3.60;;;;;;;;;;5054287;28;20033;-72
2023/08/02 06:36:26;;;;;;;11.88;4.43;;;;;;;;;;5046823;28;20025;-72
2023/08/02 06:38:52;;;;;;;17.08;4.75;;;;;;;;;;5036580;28;20028;-72
2023/08/02 06:41:18;;;;;;;11.82;3.95;;;;;;;;;;5054257;28;20028;-71
2023/08/02 06:43:44;;;;;;;11.98;4.28;;;;;;;;;;5053188;28;20542;-73
2023/08/02 06:46:10;;;;;;;12.13;4.30;;;;;;;;;;5053741;28;20036;-73
2023/08/02 06:48:36;;;;;;;10.02;4.40;;;;;;;;;;5053795;28;20344;-72
2023/08/02 06:51:02;;;;;;;21.08;5.68;;;;;;;;;;5053002;28;20029;-72
2023/08/02 06:53:28;;;;;;;7.32;3.90;;;;;;;;;;5051298;28;20056;-71
2023/08/02 06:55:54;;;;;;;32.47;7.05;;;;;;;;;;5052778;28;20387;-72
2023/08/02 06:58:20;;;;;;;19.25;6.47;;;;;;;;;;5052588;28;20017;-72
2023/08/02 07:00:46;;;;;;;14.27;6.18;;;;;;;;;;5052346;28;20423;-72
2023/08/02 07:03:11;;;;;;;20.38;7.45;;;;;;;;;;5052341;28;20030;-73
2023/08/02 07:05:38;;;;;;;18.25;7.15;;;;;;;;;;5052673;28;20068;-72
2023/08/02 07:08:04;;;;;;;19.35;7.18;;;;;;;;;;5055414;28;20063;-71
2023/08/02 07:10:30;;;;;;;20.20;7.32;;;;;;;;;;5055945;28;20025;-71
2023/08/02 07:12:56;;;;;;;17.55;8.10;;;;;;;;;;5057966;28;20033;-72
2023/08/02 07:15:22;;;;;;;16.80;8.23;;;;;;;;;;5052710;28;20372;-73
2023/08/02 07:17:49;;;;;;;16.38;7.70;;;;;;;;;;5051848;28;20029;-72
2023/08/02 07:20:15;;;;;;;14.35;7.53;;;;;;;;;;5051702;28;20060;-72
2023/08/02 07:22:44;;;;;;;16.08;7.10;;;;;;;;;;5051322;28;20033;-73
2023/08/02 07:25:10;;;;;;;14.32;6.60;;;;;;;;;;5052557;28;20028;-73
2023/08/02 07:27:36;;;;;;;24.63;7.05;;;;;;;;;;5052580;28;20086;-72
2023/08/02 07:30:02;;;;;;;21.83;6.45;;;;;;;;;;5052023;28;20029;-71
2023/08/02 07:32:29;;;;;;;15.90;4.72;;;;;;;;;;5050755;28;20094;-73
2023/08/02 07:34:55;;;;;;;10.80;3.83;;;;;;;;;;5052025;28;20025;-73
2023/08/02 07:37:21;;;;;;;18.83;6.22;;;;;;;;;;5053779;28;20025;-71
2023/08/02 07:39:47;;;;;;;18.45;5.60;;;;;;;;;;5053581;28;20060;-72
2023/08/02 07:42:13;;;;;;;16.88;5.30;;;;;;;;;;5054221;28;20044;-72
2023/08/02 07:44:39;;;;;;;14.25;5.15;;;;;;;;;;5054051;28;20029;-72
2023/08/02 07:47:05;;;;;;;17.15;5.13;;;;;;;;;;5055191;28;20517;-72
2023/08/02 07:49:31;;;;;;;18.92;5.40;;;;;;;;;;5058071;28;20502;-72
2023/08/02 07:51:57;;;;;;;23.58;6.18;;;;;;;;;;5052204;28;20025;-74
2023/08/02 07:54:23;;;;;;;17.40;4.85;;;;;;;;;;5053676;28;20569;-72
2023/08/02 07:56:49;;;;;;;17.33;4.95;;;;;;;;;;5052761;28;20037;-72
2023/08/02 07:59:15;;;;;;;21.52;5.00;;;;;;;;;;5052850;28;20017;-73
2023/08/02 08:01:42;;;;;;;25.60;5.57;;;;;;;;;;5052168;28;20367;-73
2023/08/02 08:04:08;;;;;;;25.48;5.72;;;;;;;;;;5053264;28;20025;-73
2023/08/02 08:06:34;;;;;;;16.33;4.60;;;;;;;;;;5052607;28;20029;-73
2023/08/02 08:09:00;;;;;;;24.60;5.35;;;;;;;;;;5054410;28;20032;-72
2023/08/02 08:11:29;;;;;;;26.98;5.93;;;;;;;;;;5055235;28;20025;-72
2023/08/02 08:13:58;;;;;;;20.27;4.50;;;;;;;;;;5053796;28;20037;-72
2023/08/02 08:16:24;;;;;;;22.15;5.05;;;;;;;;;;5052479;28;20036;-73
2023/08/02 08:18:50;;;;;;;18.63;4.68;;;;;;;;;;5057890;28;20021;-71
2023/08/02 08:21:16;;;;;;;18.08;4.85;;;;;;;;;;5054531;28;20441;-71
2023/08/02 08:23:42;;;;;;;18.48;4.15;;;;;;;;;;5052788;28;20025;-72
2023/08/02 08:26:12;;;;;;;16.55;4.60;;;;;;;;;;5052335;28;20028;-73
2023/08/02 08:28:38;;;;;;;23.35;4.70;;;;;;;;;;5053073;28;20017;-74
2023/08/02 08:31:04;;;;;;;15.70;3.80;;;;;;;;;;5052647;28;20021;-72
2023/08/02 08:33:31;;;;;;;15.63;4.57;;;;;;;;;;5055407;28;20494;-72
2023/08/02 08:35:57;;;;;;;16.80;3.72;;;;;;;;;;5052704;28;20478;-72
2023/08/02 08:38:23;;;;;;;20.45;4.35;;;;;;;;;;5053417;28;20059;-72
2023/08/02 08:40:50;;;;;;;28.40;4.93;;;;;;;;;;5055800;28;20025;-72
2023/08/02 08:43:16;;;;;;;13.38;3.72;;;;;;;;;;5061551;28;20025;-72
2023/08/02 08:45:44;;;;;;;17.35;4.32;;;;;;;;;;5055206;28;20040;-73
2023/08/02 08:48:10;;;;;;;13.88;4.18;;;;;;;;;;5053334;28;20025;-73
2023/08/02 08:50:36;;;;;;;20.88;4.63;;;;;;;;;;5052162;28;20048;-72
2023/08/02 08:53:05;;;;;;;20.33;3.92;;;;;;;;;;5051253;28;20032;-71
2023/08/02 08:55:33;;;;;;;18.45;4.20;;;;;;;;;;5052078;28;20442;-72
2023/08/02 08:57:59;;;;;;;17.08;4.18;;;;;;;;;;5051657;28;20025;-72
2023/08/02 09:00:26;;;;;;;13.32;3.55;;;;;;;;;;5051748;28;20021;-73
2023/08/02 09:02:52;;;;;;;17.98;4.47;;;;;;;;;;5051369;28;20056;-73
2023/08/02 09:05:18;;;;;;;18.90;4.00;;;;;;;;;;5052237;28;20044;-72
2023/08/02 09:07:44;;;;;;;15.65;3.83;;;;;;;;;;5053416;28;20065;-72
2023/08/02 09:10:10;;;;;;;21.45;4.15;;;;;;;;;;5052861;28;20029;-73
2023/08/02 09:12:43;;;;;;;14.80;3.95;;;;;;;;;;5050928;28;20029;-73
2023/08/02 09:15:09;;;;;;;17.80;3.90;;;;;;;;;;5051549;28;20025;-71
2023/08/02 09:17:54;;;;;;;20.75;3.92;;;;;;;;;;5051362;28;20536;-72
2023/08/02 09:20:22;;;;;;;10.23;3.42;;;;;;;;;;5051682;28;20028;-72
2023/08/02 09:22:48;;;;;;;23.05;4.70;;;;;;;;;;5052316;28;20033;-72
2023/08/02 09:25:27;;;;;;;14.02;4.40;;;;;;;;;;5050796;28;20451;-74
2023/08/02 09:27:54;;;;;;;10.98;3.13;;;;;;;;;;5051155;28;20044;-73
2023/08/02 09:30:25;;;;;;;14.70;3.60;;;;;;;;;;5051699;28;20063;-72
2023/08/02 09:33:07;;;;;;;16.83;3.67;;;;;;;;;;5052033;28;20048;-73
2023/08/02 09:35:47;;;;;;;16.15;3.67;;;;;;;;;;5052392;28;20116;-72
2023/08/02 09:38:13;;;;;;;13.90;3.47;;;;;;;;;;5051374;28;20094;-71
2023/08/02 09:40:40;;;;;;;16.35;3.72;;;;;;;;;;5051070;28;20017;-72
2023/08/02 09:43:10;;;;;;;20.17;4.03;;;;;;;;;;5050886;28;20040;-72
2023/08/02 09:45:37;;;;;;;16.05;4.30;;;;;;;;;;5051315;28;20117;-72
2023/08/02 09:48:03;;;;;;;17.20;3.92;;;;;;;;;;5053152;28;20037;-72
2023/08/02 09:50:30;;;;;;;18.25;3.97;;;;;;;;;;5052850;28;20028;-76
2023/08/02 09:52:56;;;;;;;17.27;4.10;;;;;;;;;;5051331;28;20028;-74
2023/08/02 09:55:22;;;;;;;19.60;5.30;;;;;;;;;;5051825;28;20391;-74
2023/08/02 09:57:49;;;;;;;17.75;5.20;;;;;;;;;;5053389;28;20039;-74
2023/08/02 10:00:15;;;;;;;16.75;4.25;;;;;;;;;;5053115;28;20363;-74
2023/08/02 10:02:42;;;;;;;16.55;4.07;;;;;;;;;;5053590;28;20060;-74
2023/08/02 10:05:12;;;;;;;12.75;4.07;;;;;;;;;;5052157;28;20041;-73
2023/08/02 10:07:54;;;;;;;16.17;4.32;;;;;;;;;;5051089;28;20037;-72
2023/08/02 10:10:25;;;;;;;12.73;4.13;;;;;;;;;;5050785;28;20021;-72
2023/08/02 10:12:59;;;;;;;21.25;4.47;;;;;;;;;;5050740;28;20021;-73
2023/08/02 10:15:25;;;;;;;;;;;;;;;;;;5051997;28;20111;-73
2023/08/02 10:17:52;;;;;;;17.73;4.38;;;;;;;;;;5050961;28;19939;-73
2023/08/02 10:20:18;;;;;;;16.23;4.22;;;;;;;;;;5052754;28;20583;-74
2023/08/02 10:22:45;;;;;;;17.40;3.85;;;;;;;;;;5052423;28;20029;-76
2023/08/02 10:25:13;;;;;;;15.43;3.97;;;;;;;;;;5052654;28;20024;-76
2023/08/02 10:27:40;;;;;;;17.77;4.40;;;;;;;;;;5054335;28;20367;-76
2023/08/02 10:30:06;;;;;;;13.20;3.42;;;;;;;;;;5054333;28;20036;-76
2023/08/02 10:32:32;;;;;;;19.33;3.97;;;;;;;;;;5054203;28;20501;-75
2023/08/02 10:34:59;;;;;;;9.13;3.35;;;;;;;;;;5054718;28;20033;-76
2023/08/02 10:37:45;;;;;;;13.32;4.07;;;;;;;;;;5056109;28;20017;-75
2023/08/02 10:40:11;;;;;;;14.95;4.03;;;;;;;;;;5054853;28;20058;-73
2023/08/02 10:42:57;;;;;;;15.85;4.03;;;;;;;;;;5052291;28;20034;-72
2023/08/02 10:45:23;;;;;;;16.88;4.07;;;;;;;;;;5049610;28;20063;-73
2023/08/02 10:47:49;;;;;;;15.27;3.80;;;;;;;;;;5036763;28;20025;-72
2023/08/02 10:50:34;;;;;;;13.48;3.67;;;;;;;;;;5046238;28;20357;-73
2023/08/02 10:53:00;;;;;;;;;;;;;;;;;;5051815;28;20033;-73
2023/08/02 10:55:26;;;;;;;11.90;3.70;;;;;;;;;;5047520;28;19928;-71
2023/08/02 10:57:55;;;;;;;15.82;3.85;;;;;;;;;;5053226;28;20502;-73
2023/08/02 11:00:25;;;;;;;20.60;4.15;;;;;;;;;;5050901;28;20025;-73
2023/08/02 11:02:52;;;;;;;16.42;4.00;;;;;;;;;;5043079;28;20022;-72
2023/08/02 11:05:36;;;;;;;11.07;3.70;;;;;;;;;;5052434;28;20537;-74
2023/08/02 11:08:02;;;;;;;15.23;3.85;;;;;;;;;;5053245;28;20080;-71
2023/08/02 11:10:28;;;;;;;14.90;3.75;;;;;;;;;;5053642;28;20454;-73
2023/08/02 11:12:55;;;;;;;17.40;3.95;;;;;;;;;;5051147;28;20044;-73
2023/08/02 11:15:21;;;;;;;16.73;3.78;;;;;;;;;;5054199;28;20017;-72
2023/08/02 11:17:56;;;;;;;25.02;4.25;;;;;;;;;;5054480;28;20463;-71
2023/08/02 11:20:30;;;;;;;16.30;4.22;;;;;;;;;;5047286;28;20028;-72
2023/08/02 11:22:57;;;;;;;22.05;3.85;;;;;;;;;;5054880;28;20032;-73
2023/08/02 11:25:23;;;;;;;14.43;3.67;;;;;;;;;;5047485;28;20017;-72
2023/08/02 11:27:59;;;;;;;17.40;3.72;;;;;;;;;;5044238;28;20025;-73
2023/08/02 11:30:25;;;;;;;13.20;3.85;;;;;;;;;;5039277;28;20025;-72
2023/08/02 11:32:51;;;;;;;11.25;3.55;;;;;;;;;;5040220;28;20090;-75
2023/08/02 11:35:18;;;;;;;14.05;3.65;;;;;;;;;;5037209;28;20095;-70
2023/08/02 11:37:44;;;;;;;16.67;3.80;;;;;;;;;;5046527;28;20052;-72
2023/08/02 11:40:10;;;;;;;13.20;3.65;;;;;;;;;;5056317;28;20097;-74
2023/08/02 11:42:46;;;;;;;20.65;4.47;;;;;;;;;;5050155;28;20026;-71
2023/08/02 11:45:12;;;;;;;12.32;4.05;;;;;;;;;;5053159;28;20020;-73
2023/08/02 11:47:38;;;;;;;15.07;3.90;;;;;;;;;;5051757;28;20029;-72
2023/08/02 11:50:04;;;;;;;14.93;4.70;;;;;;;;;;5048400;28;20372;-72
2023/08/02 11:52:31;;;;;;;12.98;3.78;;;;;;;;;;5053327;28;20031;-73
2023/08/02 11:54:57;;;;;;;10.85;3.55;;;;;;;;;;5056145;28;20026;-71
2023/08/02 11:57:24;;;;;;;14.98;3.70;;;;;;;;;;5047987;28;20466;-71
2023/08/02 11:59:51;;;;;;;19.63;3.70;;;;;;;;;;5059074;28;20035;-71
2023/08/02 12:02:28;;;;;;;12.32;4.07;;;;;;;;;;5052474;28;20024;-73
2023/08/02 12:04:55;;;;;;;13.30;3.70;;;;;;;;;;5052044;28;20040;-73
2023/08/02 12:07:25;;;;;;;10.80;3.42;;;;;;;;;;5053488;28;20033;-73
2023/08/02 12:09:51;;;;;;;11.65;3.33;;;;;;;;;;5055455;28;20031;-73
2023/08/02 12:12:17;;;;;;;12.80;3.47;;;;;;;;;;5051688;28;20033;-73
2023/08/02 12:14:43;;;;;;;10.80;3.40;;;;;;;;;;5052370;28;20017;-72
2023/08/02 12:17:35;;;;;;;14.15;3.95;;;;;;;;;;5052356;28;20071;-73
2023/08/02 12:20:01;;;;;;;10.73;3.20;;;;;;;;;;5050172;28;20040;-72
2023/08/02 12:22:27;;;;;;;8.70;3.08;;;;;;;;;;5051495;28;20025;-71
2023/08/02 12:25:06;;;;;;;13.25;3.33;;;;;;;;;;5052159;28;20033;-72
2023/08/02 12:27:32;;;;;;;10.40;3.25;;;;;;;;;;5052232;28;20028;-71
2023/08/02 12:30:09;;;;;;;11.20;3.13;;;;;;;;;;5052281;28;20291;-70
2023/08/02 12:32:35;;;;;;;9.82;2.65;;;;;;;;;;5051032;28;20017;-71
2023/08/02 12:35:05;;;;;;;9.18;2.90;;;;;;;;;;5052247;28;20028;-72
2023/08/02 12:37:31;;;;;;;12.70;3.00;;;;;;;;;;5052069;28;20031;-70
2023/08/02 12:39:58;;;;;;;15.48;3.17;;;;;;;;;;5052463;28;20104;-72
2023/08/02 12:42:24;;;;;;;9.07;2.88;;;;;;;;;;5052682;28;20107;-73
2023/08/02 12:44:50;;;;;;;6.20;2.97;;;;;;;;;;5053938;28;20037;-72
2023/08/02 12:47:16;;;;;;;10.75;3.17;;;;;;;;;;5053399;28;20472;-71
2023/08/02 12:49:42;;;;;;;9.52;4.75;;;;;;;;;;5051184;28;20029;-72
2023/08/02 12:52:08;;;;;;;14.95;3.15;;;;;;;;;;5050872;28;20056;-71
2023/08/02 12:54:34;;;;;;;8.82;3.25;;;;;;;;;;5050712;28;20025;-72
2023/08/02 12:57:00;;;;;;;11.07;3.45;;;;;;;;;;5051237;28;20017;-72
2023/08/02 12:59:26;;;;;;;11.07;3.33;;;;;;;;;;5052022;28;20082;-72
2023/08/02 13:01:52;;;;;;;9.77;3.58;;;;;;;;;;5050583;28;20094;-72
2023/08/02 13:04:18;;;;;;;10.40;3.20;;;;;;;;;;5066669;28;20025;-70
2023/08/02 13:06:44;;;;;;;9.05;3.15;;;;;;;;;;5071836;28;20021;-74
2023/08/02 13:09:10;;;;;;;8.70;3.10;;;;;;;;;;5071610;28;20055;-72
2023/08/02 13:11:36;;;;;;;7.50;2.80;;;;;;;;;;5071479;28;20021;-74
2023/08/02 13:14:02;;;;;;;7.65;3.17;;;;;;;;;;5071246;28;20070;-77
2023/08/02 13:16:28;;;;;;;7.00;3.03;;;;;;;;;;5071625;28;20033;-78
2023/08/02 13:18:54;;;;;;;6.45;2.88;;;;;;;;;;5071792;28;20107;-75
2023/08/02 13:21:20;;;;;;;8.23;3.05;;;;;;;;;;5071866;28;20078;-75
2023/08/02 13:23:49;;;;;;;10.52;3.60;;;;;;;;;;5070288;28;20032;-78
2023/08/02 13:26:15;;;;;;;11.90;5.70;;;;;;;;;;5072110;28;20024;-76
2023/08/02 13:28:41;;;;;;;8.10;3.60;;;;;;;;;;5071755;28;20074;-76
2023/08/02 13:31:07;;;;;;;7.95;3.35;;;;;;;;;;5072008;28;20033;-74
2023/08/02 13:33:33;;;;;;;9.65;3.50;;;;;;;;;;5070964;28;20028;-76
2023/08/02 13:35:59;;;;;;;7.20;3.60;;;;;;;;;;5071465;28;20029;-75
2023/08/02 13:38:25;;;;;;;6.18;3.03;;;;;;;;;;5072000;28;20021;-78
2023/08/02 13:40:51;;;;;;;12.77;3.70;;;;;;;;;;5071567;28;20025;-75
2023/08/02 13:43:17;;;;;;;7.45;3.10;;;;;;;;;;5071275;28;20032;-76
2023/08/02 13:45:44;;;;;;;8.00;3.40;;;;;;;;;;5071711;28;20024;-78
2023/08/02 13:48:11;;;;;;;8.10;3.78;;;;;;;;;;5071769;28;20377;-77
2023/08/02 13:50:38;;;;;;;10.65;3.70;;;;;;;;;;5071766;28;20044;-78
2023/08/02 13:53:05;;;;;;;9.65;3.67;;;;;;;;;;5071369;28;20028;-76
2023/08/02 13:55:31;;;;;;;12.82;3.58;;;;;;;;;;5072223;28;20025;-76
2023/08/02 13:57:57;;;;;;;8.35;3.78;;;;;;;;;;5071371;28;20024;-76
2023/08/02 14:00:23;;;;;;;9.88;3.72;;;;;;;;;;5073409;28;20020;-73
2023/08/02 14:02:49;;;;;;;7.65;3.47;;;;;;;;;;5074807;28;20485;-73
2023/08/02 14:05:15;;;;;;;9.15;3.85;;;;;;;;;;5074812;28;20033;-72
2023/08/02 14:07:41;;;;;;;11.38;3.63;;;;;;;;;;5074867;28;20587;-72
2023/08/02 14:10:08;;;;;;;7.07;3.38;;;;;;;;;;5072673;28;20183;-72
2023/08/02 14:12:35;;;;;;;8.60;3.58;;;;;;;;;;5072793;28;20346;-75
2023/08/02 14:15:01;;;;;;;10.95;3.92;;;;;;;;;;5074109;28;20019;-73
2023/08/02 14:17:27;;;;;;;12.73;4.30;;;;;;;;;;5073682;28;20070;-73
2023/08/02 14:19:53;;;;;;;15.02;7.53;;;;;;;;;;5074294;28;20496;-78
2023/08/02 14:22:19;;;;;;;21.30;13.23;;;;;;;;;;5072963;28;20021;-75
2023/08/02 14:24:46;;;;;;;13.60;4.00;;;;;;;;;;5073597;28;20027;-75
2023/08/02 14:27:12;;;;;;;11.93;4.07;;;;;;;;;;5073496;28;20617;-72
2023/08/02 14:29:38;;;;;;;6.88;3.33;;;;;;;;;;5073681;28;20679;-72
2023/08/02 14:32:05;;;;;;;6.47;3.72;;;;;;;;;;5073217;28;21053;-73
2023/08/02 14:34:31;;;;;;;7.18;3.88;;;;;;;;;;5073225;28;20496;-72